sensor_id;sensor_type;location;lat;lon;timestamp;P1;durP1;ratioP1;P2;durP2;ratioP2
15258;SDS011;34462;51.368;12.364;2023-06-10T00:00:50;6.82;;;4.20;;
15258;SDS011;34462;51.368;12.364;2023-06-10T00:03:19;5.55;;;4.18;;
15258;SDS011;34462;51.368;12.364;2023-06-10T00:05:50;4.25;;;3.80;;
15258;SDS011;34462;51.368;12.364;2023-06-10T00:08:18;5.72;;;4.20;;
15258;SDS011;34462;51.368;12.364;2023-06-10T00:10:47;5.95;;;4.32;;
15258;SDS011;34462;51.368;12.364;2023-06-10T00:13:15;6.68;;;4.50;;
15258;SDS011;34462;51.368;12.364;2023-06-10T00:15:44;5.88;;;4.18;;
15258;SDS011;34462;51.368;12.364;2023-06-10T00:18:14;5.82;;;4.68;;
15258;SDS011;34462;51.368;12.364;2023-06-10T00:20:43;4.93;;;4.40;;
15258;SDS011;34462;51.368;12.364;2023-06-10T00:23:12;4.75;;;3.97;;
15258;SDS011;34462;51.368;12.364;2023-06-10T00:25:41;5.53;;;3.97;;
15258;SDS011;34462;51.368;12.364;2023-06-10T00:28:09;7.45;;;4.40;;
15258;SDS011;34462;51.368;12.364;2023-06-10T00:30:38;6.75;;;4.55;;
15258;SDS011;34462;51.368;12.364;2023-06-10T00:33:06;7.00;;;4.75;;
15258;SDS011;34462;51.368;12.364;2023-06-10T00:35:37;6.00;;;4.45;;
15258;SDS011;34462;51.368;12.364;2023-06-10T00:38:06;5.25;;;4.50;;
15258;SDS011;34462;51.368;12.364;2023-06-10T00:40:38;6.35;;;4.50;;
15258;SDS011;34462;51.368;12.364;2023-06-10T00:43:07;5.65;;;4.30;;
15258;SDS011;34462;51.368;12.364;2023-06-10T00:45:36;6.60;;;4.30;;
15258;SDS011;34462;51.368;12.364;2023-06-10T00:48:04;6.32;;;4.38;;
15258;SDS011;34462;51.368;12.364;2023-06-10T00:50:34;6.57;;;4.70;;
15258;SDS011;34462;51.368;12.364;2023-06-10T00:53:06;6.70;;;4.93;;
15258;SDS011;34462;51.368;12.364;2023-06-10T00:55:36;5.55;;;4.43;;
15258;SDS011;34462;51.368;12.364;2023-06-10T00:58:05;7.45;;;4.55;;
15258;SDS011;34462;51.368;12.364;2023-06-10T01:00:34;6.80;;;4.75;;
15258;SDS011;34462;51.368;12.364;2023-06-10T01:03:03;6.13;;;4.90;;
15258;SDS011;34462;51.368;12.364;2023-06-10T01:05:34;6.75;;;4.68;;
15258;SDS011;34462;51.368;12.364;2023-06-10T01:08:05;5.30;;;4.60;;
15258;SDS011;34462;51.368;12.364;2023-06-10T01:10:46;5.90;;;4.15;;
15258;SDS011;34462;51.368;12.364;2023-06-10T01:13:20;5.45;;;4.80;;
15258;SDS011;34462;51.368;12.364;2023-06-10T01:15:55;6.00;;;5.40;;
15258;SDS011;34462;51.368;12.364;2023-06-10T01:18:29;6.43;;;5.40;;
15258;SDS011;34462;51.368;12.364;2023-06-10T01:20:58;8.77;;;5.22;;
15258;SDS011;34462;51.368;12.364;2023-06-10T01:23:28;7.32;;;5.80;;
15258;SDS011;34462;51.368;12.364;2023-06-10T01:25:59;8.10;;;6.13;;
15258;SDS011;34462;51.368;12.364;2023-06-10T01:28:31;7.88;;;6.70;;
15258;SDS011;34462;51.368;12.364;2023-06-10T01:31:07;12.38;;;7.25;;
15258;SDS011;34462;51.368;12.364;2023-06-10T01:33:41;8.43;;;6.60;;
15258;SDS011;34462;51.368;12.364;2023-06-10T01:36:12;9.52;;;7.10;;
15258;SDS011;34462;51.368;12.364;2023-06-10T01:38:45;8.75;;;7.18;;
15258;SDS011;34462;51.368;12.364;2023-06-10T01:41:15;10.00;;;7.82;;
15258;SDS011;34462;51.368;12.364;2023-06-10T01:43:45;8.65;;;7.63;;
15258;SDS011;34462;51.368;12.364;2023-06-10T01:46:14;9.63;;;7.47;;
15258;SDS011;34462;51.368;12.364;2023-06-10T01:48:47;10.68;;;7.60;;
15258;SDS011;34462;51.368;12.364;2023-06-10T01:51:15;8.57;;;7.75;;
15258;SDS011;34462;51.368;12.364;2023-06-10T01:53:45;10.25;;;7.05;;
15258;SDS011;34462;51.368;12.364;2023-06-10T01:56:14;9.02;;;7.22;;
15258;SDS011;34462;51.368;12.364;2023-06-10T01:58:45;8.77;;;7.03;;
15258;SDS011;34462;51.368;12.364;2023-06-10T02:01:14;9.05;;;7.28;;
15258;SDS011;34462;51.368;12.364;2023-06-10T02:03:42;10.75;;;7.00;;
15258;SDS011;34462;51.368;12.364;2023-06-10T02:06:11;7.68;;;6.82;;
15258;SDS011;34462;51.368;12.364;2023-06-10T02:08:39;9.32;;;6.55;;
15258;SDS011;34462;51.368;12.364;2023-06-10T02:11:09;7.15;;;6.45;;
15258;SDS011;34462;51.368;12.364;2023-06-10T02:13:38;7.65;;;6.68;;
15258;SDS011;34462;51.368;12.364;2023-06-10T02:16:06;10.55;;;6.53;;
15258;SDS011;34462;51.368;12.364;2023-06-10T02:18:35;9.00;;;6.60;;
15258;SDS011;34462;51.368;12.364;2023-06-10T02:21:04;7.63;;;6.82;;
15258;SDS011;34462;51.368;12.364;2023-06-10T02:23:33;7.63;;;6.50;;
15258;SDS011;34462;51.368;12.364;2023-06-10T02:26:01;7.65;;;6.90;;
15258;SDS011;34462;51.368;12.364;2023-06-10T02:28:31;6.88;;;6.25;;
15258;SDS011;34462;51.368;12.364;2023-06-10T02:31:00;8.13;;;7.20;;
15258;SDS011;34462;51.368;12.364;2023-06-10T02:33:28;7.60;;;6.90;;
15258;SDS011;34462;51.368;12.364;2023-06-10T02:35:57;8.23;;;7.18;;
15258;SDS011;34462;51.368;12.364;2023-06-10T02:38:27;7.32;;;6.63;;
15258;SDS011;34462;51.368;12.364;2023-06-10T02:40:56;8.77;;;7.15;;
15258;SDS011;34462;51.368;12.364;2023-06-10T02:43:24;8.00;;;6.75;;
15258;SDS011;34462;51.368;12.364;2023-06-10T02:45:54;8.35;;;6.63;;
15258;SDS011;34462;51.368;12.364;2023-06-10T02:48:23;8.70;;;6.90;;
15258;SDS011;34462;51.368;12.364;2023-06-10T02:50:51;7.75;;;6.47;;
15258;SDS011;34462;51.368;12.364;2023-06-10T02:53:22;9.25;;;6.90;;
15258;SDS011;34462;51.368;12.364;2023-06-10T02:55:50;9.65;;;6.70;;
15258;SDS011;34462;51.368;12.364;2023-06-10T02:58:19;7.00;;;6.30;;
15258;SDS011;34462;51.368;12.364;2023-06-10T03:00:48;7.68;;;6.22;;
15258;SDS011;34462;51.368;12.364;2023-06-10T03:03:18;8.20;;;6.32;;
15258;SDS011;34462;51.368;12.364;2023-06-10T03:05:48;8.23;;;6.57;;
15258;SDS011;34462;51.368;12.364;2023-06-10T03:08:17;7.03;;;6.30;;
15258;SDS011;34462;51.368;12.364;2023-06-10T03:10:45;8.18;;;6.53;;
15258;SDS011;34462;51.368;12.364;2023-06-10T03:13:14;6.65;;;6.15;;
15258;SDS011;34462;51.368;12.364;2023-06-10T03:15:42;7.75;;;6.80;;
15258;SDS011;34462;51.368;12.364;2023-06-10T03:18:12;10.27;;;6.63;;
15258;SDS011;34462;51.368;12.364;2023-06-10T03:20:42;7.60;;;6.72;;
15258;SDS011;34462;51.368;12.364;2023-06-10T03:23:11;6.55;;;5.95;;
15258;SDS011;34462;51.368;12.364;2023-06-10T03:25:40;7.20;;;6.15;;
15258;SDS011;34462;51.368;12.364;2023-06-10T03:28:08;11.20;;;6.32;;
15258;SDS011;34462;51.368;12.364;2023-06-10T03:30:37;8.95;;;6.88;;
15258;SDS011;34462;51.368;12.364;2023-06-10T03:33:05;7.00;;;6.30;;
15258;SDS011;34462;51.368;12.364;2023-06-10T03:35:34;7.60;;;6.85;;
15258;SDS011;34462;51.368;12.364;2023-06-10T03:38:04;10.40;;;7.18;;
15258;SDS011;34462;51.368;12.364;2023-06-10T03:40:32;9.70;;;6.80;;
15258;SDS011;34462;51.368;12.364;2023-06-10T03:43:01;7.60;;;6.78;;
15258;SDS011;34462;51.368;12.364;2023-06-10T03:45:30;7.47;;;6.35;;
15258;SDS011;34462;51.368;12.364;2023-06-10T03:47:58;8.70;;;6.68;;
15258;SDS011;34462;51.368;12.364;2023-06-10T03:50:27;8.32;;;6.45;;
15258;SDS011;34462;51.368;12.364;2023-06-10T03:52:56;8.57;;;7.05;;
15258;SDS011;34462;51.368;12.364;2023-06-10T03:55:26;7.22;;;6.60;;
15258;SDS011;34462;51.368;12.364;2023-06-10T03:57:55;9.88;;;6.85;;
15258;SDS011;34462;51.368;12.364;2023-06-10T04:00:24;7.55;;;6.18;;
15258;SDS011;34462;51.368;12.364;2023-06-10T04:02:52;7.22;;;6.47;;
15258;SDS011;34462;51.368;12.364;2023-06-10T04:05:24;7.95;;;6.20;;
15258;SDS011;34462;51.368;12.364;2023-06-10T04:07:55;6.88;;;6.28;;
15258;SDS011;34462;51.368;12.364;2023-06-10T04:10:23;10.75;;;7.03;;
15258;SDS011;34462;51.368;12.364;2023-06-10T04:12:53;7.30;;;6.60;;
15258;SDS011;34462;51.368;12.364;2023-06-10T04:15:22;10.05;;;6.88;;
15258;SDS011;34462;51.368;12.364;2023-06-10T04:17:50;10.70;;;7.07;;
15258;SDS011;34462;51.368;12.364;2023-06-10T04:20:19;11.52;;;7.18;;
15258;SDS011;34462;51.368;12.364;2023-06-10T04:22:48;7.07;;;6.38;;
15258;SDS011;34462;51.368;12.364;2023-06-10T04:25:17;8.43;;;6.78;;
15258;SDS011;34462;51.368;12.364;2023-06-10T04:27:45;9.80;;;7.03;;
15258;SDS011;34462;51.368;12.364;2023-06-10T04:30:16;7.80;;;6.32;;
15258;SDS011;34462;51.368;12.364;2023-06-10T04:32:45;7.47;;;6.43;;
15258;SDS011;34462;51.368;12.364;2023-06-10T04:35:15;8.02;;;6.60;;
15258;SDS011;34462;51.368;12.364;2023-06-10T04:37:43;9.48;;;6.30;;
15258;SDS011;34462;51.368;12.364;2023-06-10T04:40:12;7.50;;;6.40;;
15258;SDS011;34462;51.368;12.364;2023-06-10T04:42:42;9.07;;;6.50;;
15258;SDS011;34462;51.368;12.364;2023-06-10T04:45:10;8.45;;;6.63;;
15258;SDS011;34462;51.368;12.364;2023-06-10T04:47:40;9.55;;;7.13;;
15258;SDS011;34462;51.368;12.364;2023-06-10T04:50:10;9.45;;;6.95;;
15258;SDS011;34462;51.368;12.364;2023-06-10T04:52:38;7.07;;;6.38;;
15258;SDS011;34462;51.368;12.364;2023-06-10T04:55:08;6.68;;;5.15;;
15258;SDS011;34462;51.368;12.364;2023-06-10T04:57:37;8.30;;;5.80;;
15258;SDS011;34462;51.368;12.364;2023-06-10T05:00:06;7.05;;;4.68;;
15258;SDS011;34462;51.368;12.364;2023-06-10T05:02:35;6.40;;;4.93;;
15258;SDS011;34462;51.368;12.364;2023-06-10T05:05:06;7.32;;;5.00;;
15258;SDS011;34462;51.368;12.364;2023-06-10T05:07:35;5.47;;;4.97;;
15258;SDS011;34462;51.368;12.364;2023-06-10T05:10:04;6.07;;;5.25;;
15258;SDS011;34462;51.368;12.364;2023-06-10T05:12:33;5.97;;;4.68;;
15258;SDS011;34462;51.368;12.364;2023-06-10T05:15:01;7.03;;;5.10;;
15258;SDS011;34462;51.368;12.364;2023-06-10T05:17:30;8.77;;;5.40;;
15258;SDS011;34462;51.368;12.364;2023-06-10T05:19:59;6.60;;;5.30;;
15258;SDS011;34462;51.368;12.364;2023-06-10T05:22:29;6.68;;;5.35;;
15258;SDS011;34462;51.368;12.364;2023-06-10T05:24:57;8.18;;;5.60;;
15258;SDS011;34462;51.368;12.364;2023-06-10T05:27:26;5.88;;;5.38;;
15258;SDS011;34462;51.368;12.364;2023-06-10T05:29:54;6.25;;;5.50;;
15258;SDS011;34462;51.368;12.364;2023-06-10T05:32:23;5.57;;;4.90;;
15258;SDS011;34462;51.368;12.364;2023-06-10T05:34:51;7.68;;;6.00;;
15258;SDS011;34462;51.368;12.364;2023-06-10T05:37:20;7.78;;;5.95;;
15258;SDS011;34462;51.368;12.364;2023-06-10T05:39:49;11.02;;;6.85;;
15258;SDS011;34462;51.368;12.364;2023-06-10T05:42:18;10.20;;;6.13;;
15258;SDS011;34462;51.368;12.364;2023-06-10T05:44:47;8.45;;;7.00;;
15258;SDS011;34462;51.368;12.364;2023-06-10T05:47:15;8.02;;;6.78;;
15258;SDS011;34462;51.368;12.364;2023-06-10T05:49:44;7.45;;;6.55;;
15258;SDS011;34462;51.368;12.364;2023-06-10T05:52:14;9.07;;;7.55;;
15258;SDS011;34462;51.368;12.364;2023-06-10T05:54:43;9.82;;;7.25;;
15258;SDS011;34462;51.368;12.364;2023-06-10T05:57:13;8.65;;;7.03;;
15258;SDS011;34462;51.368;12.364;2023-06-10T05:59:41;8.63;;;6.70;;
15258;SDS011;34462;51.368;12.364;2023-06-10T06:02:10;10.13;;;7.68;;
15258;SDS011;34462;51.368;12.364;2023-06-10T06:04:38;11.13;;;7.72;;
15258;SDS011;34462;51.368;12.364;2023-06-10T06:07:07;10.52;;;7.60;;
15258;SDS011;34462;51.368;12.364;2023-06-10T06:09:35;10.23;;;7.78;;
15258;SDS011;34462;51.368;12.364;2023-06-10T06:12:04;11.00;;;7.68;;
15258;SDS011;34462;51.368;12.364;2023-06-10T06:14:38;8.98;;;7.65;;
15258;SDS011;34462;51.368;12.364;2023-06-10T06:17:06;9.43;;;7.60;;
15258;SDS011;34462;51.368;12.364;2023-06-10T06:19:35;9.15;;;7.15;;
15258;SDS011;34462;51.368;12.364;2023-06-10T06:22:04;10.02;;;7.93;;
15258;SDS011;34462;51.368;12.364;2023-06-10T06:24:32;8.55;;;7.72;;
15258;SDS011;34462;51.368;12.364;2023-06-10T06:27:01;10.88;;;8.10;;
15258;SDS011;34462;51.368;12.364;2023-06-10T06:29:30;10.88;;;8.00;;
15258;SDS011;34462;51.368;12.364;2023-06-10T06:32:00;10.15;;;7.90;;
15258;SDS011;34462;51.368;12.364;2023-06-10T06:34:29;8.82;;;7.63;;
15258;SDS011;34462;51.368;12.364;2023-06-10T06:36:57;9.05;;;8.15;;
15258;SDS011;34462;51.368;12.364;2023-06-10T06:39:26;11.70;;;7.97;;
15258;SDS011;34462;51.368;12.364;2023-06-10T06:41:54;10.98;;;7.97;;
15258;SDS011;34462;51.368;12.364;2023-06-10T06:44:23;10.15;;;8.38;;
15258;SDS011;34462;51.368;12.364;2023-06-10T06:46:51;12.93;;;8.77;;
15258;SDS011;34462;51.368;12.364;2023-06-10T06:49:21;10.07;;;8.68;;
15258;SDS011;34462;51.368;12.364;2023-06-10T06:51:50;11.73;;;8.68;;
15258;SDS011;34462;51.368;12.364;2023-06-10T06:54:18;8.88;;;7.93;;
15258;SDS011;34462;51.368;12.364;2023-06-10T06:56:47;9.10;;;8.25;;
15258;SDS011;34462;51.368;12.364;2023-06-10T06:59:15;11.25;;;8.02;;
15258;SDS011;34462;51.368;12.364;2023-06-10T07:01:45;10.20;;;8.63;;
15258;SDS011;34462;51.368;12.364;2023-06-10T07:04:14;11.95;;;8.32;;
15258;SDS011;34462;51.368;12.364;2023-06-10T07:06:44;11.70;;;8.75;;
15258;SDS011;34462;51.368;12.364;2023-06-10T07:09:13;10.07;;;8.80;;
15258;SDS011;34462;51.368;12.364;2023-06-10T07:11:41;9.35;;;8.43;;
15258;SDS011;34462;51.368;12.364;2023-06-10T07:14:10;13.63;;;9.02;;
15258;SDS011;34462;51.368;12.364;2023-06-10T07:16:38;10.38;;;9.18;;
15258;SDS011;34462;51.368;12.364;2023-06-10T07:19:07;10.15;;;8.10;;
15258;SDS011;34462;51.368;12.364;2023-06-10T07:21:35;10.57;;;9.32;;
15258;SDS011;34462;51.368;12.364;2023-06-10T07:24:05;10.65;;;9.10;;
15258;SDS011;34462;51.368;12.364;2023-06-10T07:26:34;11.50;;;9.38;;
15258;SDS011;34462;51.368;12.364;2023-06-10T07:29:03;11.05;;;9.57;;
15258;SDS011;34462;51.368;12.364;2023-06-10T07:31:31;10.35;;;9.25;;
15258;SDS011;34462;51.368;12.364;2023-06-10T07:34:00;15.25;;;10.32;;
15258;SDS011;34462;51.368;12.364;2023-06-10T07:36:28;10.55;;;9.55;;
15258;SDS011;34462;51.368;12.364;2023-06-10T07:38:57;10.80;;;9.75;;
15258;SDS011;34462;51.368;12.364;2023-06-10T07:41:27;11.38;;;10.23;;
15258;SDS011;34462;51.368;12.364;2023-06-10T07:43:55;11.68;;;10.30;;
15258;SDS011;34462;51.368;12.364;2023-06-10T07:46:24;12.18;;;10.15;;
15258;SDS011;34462;51.368;12.364;2023-06-10T07:48:53;11.18;;;9.98;;
15258;SDS011;34462;51.368;12.364;2023-06-10T07:51:22;11.20;;;10.10;;
15258;SDS011;34462;51.368;12.364;2023-06-10T07:53:50;12.25;;;10.98;;
15258;SDS011;34462;51.368;12.364;2023-06-10T07:56:19;11.13;;;9.95;;
15258;SDS011;34462;51.368;12.364;2023-06-10T07:58:49;11.77;;;10.57;;
15258;SDS011;34462;51.368;12.364;2023-06-10T08:01:18;11.40;;;9.60;;
15258;SDS011;34462;51.368;12.364;2023-06-10T08:03:46;10.32;;;9.40;;
15258;SDS011;34462;51.368;12.364;2023-06-10T08:06:15;11.80;;;9.75;;
15258;SDS011;34462;51.368;12.364;2023-06-10T08:08:44;10.25;;;9.25;;
15258;SDS011;34462;51.368;12.364;2023-06-10T08:11:12;10.88;;;9.85;;
15258;SDS011;34462;51.368;12.364;2023-06-10T08:13:41;11.23;;;10.13;;
15258;SDS011;34462;51.368;12.364;2023-06-10T08:16:11;13.77;;;9.93;;
15258;SDS011;34462;51.368;12.364;2023-06-10T08:18:40;12.20;;;9.98;;
15258;SDS011;34462;51.368;12.364;2023-06-10T08:21:08;13.98;;;10.25;;
15258;SDS011;34462;51.368;12.364;2023-06-10T08:23:37;13.20;;;9.55;;
15258;SDS011;34462;51.368;12.364;2023-06-10T08:26:06;12.02;;;10.30;;
15258;SDS011;34462;51.368;12.364;2023-06-10T08:28:35;12.25;;;11.10;;
15258;SDS011;34462;51.368;12.364;2023-06-10T08:31:03;11.77;;;10.63;;
15258;SDS011;34462;51.368;12.364;2023-06-10T08:33:33;14.13;;;11.05;;
15258;SDS011;34462;51.368;12.364;2023-06-10T08:36:01;12.70;;;10.07;;
15258;SDS011;34462;51.368;12.364;2023-06-10T08:38:30;10.65;;;9.55;;
15258;SDS011;34462;51.368;12.364;2023-06-10T08:41:02;11.88;;;10.55;;
15258;SDS011;34462;51.368;12.364;2023-06-10T08:43:33;11.93;;;10.63;;
15258;SDS011;34462;51.368;12.364;2023-06-10T08:46:07;12.70;;;9.98;;
15258;SDS011;34462;51.368;12.364;2023-06-10T08:48:39;11.18;;;10.00;;
15258;SDS011;34462;51.368;12.364;2023-06-10T08:51:11;10.15;;;9.23;;
15258;SDS011;34462;51.368;12.364;2023-06-10T08:53:42;10.30;;;9.30;;
15258;SDS011;34462;51.368;12.364;2023-06-10T08:56:26;12.65;;;9.93;;
15258;SDS011;34462;51.368;12.364;2023-06-10T08:58:57;10.45;;;9.35;;
15258;SDS011;34462;51.368;12.364;2023-06-10T09:01:26;11.50;;;9.98;;
15258;SDS011;34462;51.368;12.364;2023-06-10T09:03:56;10.30;;;9.40;;
15258;SDS011;34462;51.368;12.364;2023-06-10T09:06:26;10.30;;;9.32;;
15258;SDS011;34462;51.368;12.364;2023-06-10T09:08:55;11.82;;;10.07;;
15258;SDS011;34462;51.368;12.364;2023-06-10T09:11:29;10.65;;;9.65;;
15258;SDS011;34462;51.368;12.364;2023-06-10T09:13:58;10.20;;;9.25;;
15258;SDS011;34462;51.368;12.364;2023-06-10T09:16:27;10.63;;;9.57;;
15258;SDS011;34462;51.368;12.364;2023-06-10T09:18:57;13.25;;;9.85;;
15258;SDS011;34462;51.368;12.364;2023-06-10T09:21:26;10.30;;;9.30;;
15258;SDS011;34462;51.368;12.364;2023-06-10T09:23:55;10.68;;;9.63;;
15258;SDS011;34462;51.368;12.364;2023-06-10T09:26:27;16.52;;;9.57;;
15258;SDS011;34462;51.368;12.364;2023-06-10T09:28:57;12.45;;;10.05;;
15258;SDS011;34462;51.368;12.364;2023-06-10T09:31:31;11.68;;;9.88;;
15258;SDS011;34462;51.368;12.364;2023-06-10T09:34:07;12.52;;;9.60;;
15258;SDS011;34462;51.368;12.364;2023-06-10T09:36:36;13.02;;;9.90;;
15258;SDS011;34462;51.368;12.364;2023-06-10T09:39:13;10.30;;;9.40;;
15258;SDS011;34462;51.368;12.364;2023-06-10T09:41:43;11.25;;;10.20;;
15258;SDS011;34462;51.368;12.364;2023-06-10T09:44:12;10.38;;;9.48;;
15258;SDS011;34462;51.368;12.364;2023-06-10T09:46:42;10.48;;;9.40;;
15258;SDS011;34462;51.368;12.364;2023-06-10T09:49:15;12.07;;;10.02;;
15258;SDS011;34462;51.368;12.364;2023-06-10T09:51:50;9.82;;;8.95;;
15258;SDS011;34462;51.368;12.364;2023-06-10T09:54:19;10.70;;;9.60;;
15258;SDS011;34462;51.368;12.364;2023-06-10T09:56:48;10.60;;;9.55;;
15258;SDS011;34462;51.368;12.364;2023-06-10T09:59:27;10.65;;;9.75;;
15258;SDS011;34462;51.368;12.364;2023-06-10T10:01:58;11.32;;;10.00;;
15258;SDS011;34462;51.368;12.364;2023-06-10T10:04:28;10.93;;;9.88;;
15258;SDS011;34462;51.368;12.364;2023-06-10T10:06:57;10.57;;;9.68;;
15258;SDS011;34462;51.368;12.364;2023-06-10T10:09:25;11.35;;;10.15;;
15258;SDS011;34462;51.368;12.364;2023-06-10T10:11:54;11.50;;;10.50;;
15258;SDS011;34462;51.368;12.364;2023-06-10T10:14:24;10.98;;;10.00;;
15258;SDS011;34462;51.368;12.364;2023-06-10T10:16:55;10.75;;;9.85;;
15258;SDS011;34462;51.368;12.364;2023-06-10T10:19:27;11.80;;;10.70;;
15258;SDS011;34462;51.368;12.364;2023-06-10T10:22:01;10.68;;;9.68;;
15258;SDS011;34462;51.368;12.364;2023-06-10T10:24:35;11.13;;;10.02;;
15258;SDS011;34462;51.368;12.364;2023-06-10T10:27:07;10.73;;;9.73;;
15258;SDS011;34462;51.368;12.364;2023-06-10T10:29:41;11.82;;;10.63;;
15258;SDS011;34462;51.368;12.364;2023-06-10T10:32:13;11.23;;;10.32;;
15258;SDS011;34462;51.368;12.364;2023-06-10T10:34:47;11.75;;;10.65;;
15258;SDS011;34462;51.368;12.364;2023-06-10T10:37:27;10.73;;;9.82;;
15258;SDS011;34462;51.368;12.364;2023-06-10T10:39:56;10.30;;;9.45;;
15258;SDS011;34462;51.368;12.364;2023-06-10T10:42:25;11.02;;;10.02;;
15258;SDS011;34462;51.368;12.364;2023-06-10T10:44:55;10.82;;;9.90;;
15258;SDS011;34462;51.368;12.364;2023-06-10T10:47:25;10.82;;;9.93;;
15258;SDS011;34462;51.368;12.364;2023-06-10T10:49:58;11.85;;;10.80;;
15258;SDS011;34462;51.368;12.364;2023-06-10T10:52:28;10.88;;;9.98;;
15258;SDS011;34462;51.368;12.364;2023-06-10T10:55:22;11.30;;;10.20;;
15258;SDS011;34462;51.368;12.364;2023-06-10T10:57:55;11.35;;;10.35;;
15258;SDS011;34462;51.368;12.364;2023-06-10T11:00:27;10.95;;;10.05;;
15258;SDS011;34462;51.368;12.364;2023-06-10T11:02:57;11.63;;;10.52;;
15258;SDS011;34462;51.368;12.364;2023-06-10T11:05:33;10.43;;;9.52;;
15258;SDS011;34462;51.368;12.364;2023-06-10T11:08:05;10.60;;;9.60;;
15258;SDS011;34462;51.368;12.364;2023-06-10T11:10:35;10.25;;;9.45;;
15258;SDS011;34462;51.368;12.364;2023-06-10T11:13:05;10.40;;;9.57;;
15258;SDS011;34462;51.368;12.364;2023-06-10T11:15:38;10.88;;;9.88;;
15258;SDS011;34462;51.368;12.364;2023-06-10T11:18:14;11.23;;;10.23;;
15258;SDS011;34462;51.368;12.364;2023-06-10T11:20:55;11.10;;;10.20;;
15258;SDS011;34462;51.368;12.364;2023-06-10T11:23:29;11.23;;;10.32;;
15258;SDS011;34462;51.368;12.364;2023-06-10T11:26:10;11.48;;;10.50;;
15258;SDS011;34462;51.368;12.364;2023-06-10T11:29:03;11.48;;;10.50;;
15258;SDS011;34462;51.368;12.364;2023-06-10T11:31:42;10.80;;;10.00;;
15258;SDS011;34462;51.368;12.364;2023-06-10T11:34:13;10.80;;;9.82;;
15258;SDS011;34462;51.368;12.364;2023-06-10T11:36:48;11.55;;;10.65;;
15258;SDS011;34462;51.368;12.364;2023-06-10T11:39:17;11.48;;;10.57;;
15258;SDS011;34462;51.368;12.364;2023-06-10T11:41:47;12.05;;;10.77;;
15258;SDS011;34462;51.368;12.364;2023-06-10T11:44:16;10.98;;;10.02;;
15258;SDS011;34462;51.368;12.364;2023-06-10T11:46:47;10.40;;;9.60;;
15258;SDS011;34462;51.368;12.364;2023-06-10T11:49:17;11.18;;;10.15;;
15258;SDS011;34462;51.368;12.364;2023-06-10T11:51:50;11.50;;;10.50;;
15258;SDS011;34462;51.368;12.364;2023-06-10T11:54:18;10.55;;;9.65;;
15258;SDS011;34462;51.368;12.364;2023-06-10T11:56:50;11.00;;;9.93;;
15258;SDS011;34462;51.368;12.364;2023-06-10T11:59:27;9.90;;;9.00;;
15258;SDS011;34462;51.368;12.364;2023-06-10T12:01:55;9.93;;;9.10;;
15258;SDS011;34462;51.368;12.364;2023-06-10T12:04:24;10.50;;;9.52;;
15258;SDS011;34462;51.368;12.364;2023-06-10T12:06:56;10.75;;;9.88;;
15258;SDS011;34462;51.368;12.364;2023-06-10T12:09:27;11.23;;;10.23;;
15258;SDS011;34462;51.368;12.364;2023-06-10T12:11:59;10.15;;;9.27;;
15258;SDS011;34462;51.368;12.364;2023-06-10T12:17:22;9.73;;;8.93;;
15258;SDS011;34462;51.368;12.364;2023-06-10T12:20:04;9.95;;;8.90;;
15258;SDS011;34462;51.368;12.364;2023-06-10T12:22:39;10.25;;;9.30;;
15258;SDS011;34462;51.368;12.364;2023-06-10T12:25:08;8.93;;;8.18;;
15258;SDS011;34462;51.368;12.364;2023-06-10T12:27:40;8.88;;;8.07;;
15258;SDS011;34462;51.368;12.364;2023-06-10T12:30:18;9.75;;;8.80;;
15258;SDS011;34462;51.368;12.364;2023-06-10T12:32:47;9.93;;;8.88;;
15258;SDS011;34462;51.368;12.364;2023-06-10T12:35:17;9.23;;;8.32;;
15258;SDS011;34462;51.368;12.364;2023-06-10T12:37:55;9.30;;;8.07;;
15258;SDS011;34462;51.368;12.364;2023-06-10T12:40:27;8.30;;;7.60;;
15258;SDS011;34462;51.368;12.364;2023-06-10T12:42:58;9.75;;;7.88;;
15258;SDS011;34462;51.368;12.364;2023-06-10T12:45:27;8.20;;;7.32;;
15258;SDS011;34462;51.368;12.364;2023-06-10T12:48:06;8.50;;;7.75;;
15258;SDS011;34462;51.368;12.364;2023-06-10T12:50:36;8.27;;;7.57;;
15258;SDS011;34462;51.368;12.364;2023-06-10T12:53:07;8.55;;;7.63;;
15258;SDS011;34462;51.368;12.364;2023-06-10T12:55:37;9.30;;;8.50;;
15258;SDS011;34462;51.368;12.364;2023-06-10T12:58:06;11.38;;;8.35;;
15258;SDS011;34462;51.368;12.364;2023-06-10T13:00:35;9.02;;;8.15;;
15258;SDS011;34462;51.368;12.364;2023-06-10T13:03:04;8.95;;;8.00;;
15258;SDS011;34462;51.368;12.364;2023-06-10T13:05:33;9.52;;;8.50;;
15258;SDS011;34462;51.368;12.364;2023-06-10T13:08:03;8.98;;;8.27;;
15258;SDS011;34462;51.368;12.364;2023-06-10T13:10:34;7.28;;;6.68;;
15258;SDS011;34462;51.368;12.364;2023-06-10T13:13:03;8.40;;;7.40;;
15258;SDS011;34462;51.368;12.364;2023-06-10T13:15:34;10.10;;;9.20;;
15258;SDS011;34462;51.368;12.364;2023-06-10T13:18:08;8.65;;;8.02;;
15258;SDS011;34462;51.368;12.364;2023-06-10T13:20:37;9.98;;;9.07;;
15258;SDS011;34462;51.368;12.364;2023-06-10T13:23:05;10.45;;;8.52;;
15258;SDS011;34462;51.368;12.364;2023-06-10T13:25:35;9.98;;;8.98;;
15258;SDS011;34462;51.368;12.364;2023-06-10T13:28:04;9.88;;;8.35;;
15258;SDS011;34462;51.368;12.364;2023-06-10T13:30:32;9.80;;;8.90;;
15258;SDS011;34462;51.368;12.364;2023-06-10T13:33:01;9.07;;;8.27;;
15258;SDS011;34462;51.368;12.364;2023-06-10T13:35:30;9.32;;;8.57;;
15258;SDS011;34462;51.368;12.364;2023-06-10T13:37:58;9.00;;;8.10;;
15258;SDS011;34462;51.368;12.364;2023-06-10T13:40:27;8.95;;;8.05;;
15258;SDS011;34462;51.368;12.364;2023-06-10T13:42:57;8.63;;;7.82;;
15258;SDS011;34462;51.368;12.364;2023-06-10T13:45:26;7.40;;;6.70;;
15258;SDS011;34462;51.368;12.364;2023-06-10T13:47:55;6.90;;;6.40;;
15258;SDS011;34462;51.368;12.364;2023-06-10T13:50:23;6.50;;;6.00;;
15258;SDS011;34462;51.368;12.364;2023-06-10T13:52:52;6.22;;;5.63;;
15258;SDS011;34462;51.368;12.364;2023-06-10T13:55:20;5.70;;;5.20;;
15258;SDS011;34462;51.368;12.364;2023-06-10T13:57:50;6.00;;;5.45;;
15258;SDS011;34462;51.368;12.364;2023-06-10T14:00:20;5.47;;;5.07;;
15258;SDS011;34462;51.368;12.364;2023-06-10T14:02:49;6.95;;;5.43;;
15258;SDS011;34462;51.368;12.364;2023-06-10T14:05:18;6.20;;;5.20;;
15258;SDS011;34462;51.368;12.364;2023-06-10T14:07:46;5.13;;;4.72;;
15258;SDS011;34462;51.368;12.364;2023-06-10T14:10:15;4.65;;;4.35;;
15258;SDS011;34462;51.368;12.364;2023-06-10T14:12:43;4.78;;;4.38;;
15258;SDS011;34462;51.368;12.364;2023-06-10T14:15:12;4.68;;;4.28;;
15258;SDS011;34462;51.368;12.364;2023-06-10T14:17:42;4.03;;;3.72;;
15258;SDS011;34462;51.368;12.364;2023-06-10T14:20:11;4.25;;;3.85;;
15258;SDS011;34462;51.368;12.364;2023-06-10T14:22:40;4.10;;;3.80;;
15258;SDS011;34462;51.368;12.364;2023-06-10T14:25:09;4.30;;;3.92;;
15258;SDS011;34462;51.368;12.364;2023-06-10T14:27:38;4.03;;;3.72;;
15258;SDS011;34462;51.368;12.364;2023-06-10T14:30:07;5.60;;;4.03;;
15258;SDS011;34462;51.368;12.364;2023-06-10T14:32:36;4.10;;;3.70;;
15258;SDS011;34462;51.368;12.364;2023-06-10T14:35:06;4.68;;;4.25;;
15258;SDS011;34462;51.368;12.364;2023-06-10T14:37:35;4.05;;;3.75;;
15258;SDS011;34462;51.368;12.364;2023-06-10T14:40:04;4.30;;;3.95;;
15258;SDS011;34462;51.368;12.364;2023-06-10T14:42:34;4.40;;;4.10;;
15258;SDS011;34462;51.368;12.364;2023-06-10T14:45:03;7.05;;;6.45;;